Time;durP1;ratioP1;P1;durP2;ratioP2;P2;SDS_P1;SDS_P2;PMS_P1;PMS_P2;Temp;Humidity;BMP_temperature;BMP_pressure;BME280_temperature;BME280_humidity;BME280_pressure;Samples;Min_cycle;Max_cycle;Signal;HPM_P1;HPM_P2
2023/03/21 00:01:50;;;;;;;13.98;6.97;;;;;;;10.51;70.04;99975.19;5030431;28;20033;-89
2023/03/21 00:04:15;;;;;;;17.90;6.80;;;;;;;10.32;70.00;99967.34;5030399;28;20029;-89
2023/03/21 00:06:40;;;;;;;13.90;7.57;;;;;;;10.37;70.27;99972.03;5030486;28;20021;-89
2023/03/21 00:09:06;;;;;;;14.43;6.60;;;;;;;10.63;69.67;99961.38;5012264;28;20045;-96
2023/03/21 00:11:31;;;;;;;12.38;6.28;;;;;;;10.67;69.45;99950.75;5030801;28;20259;-95
2023/03/21 00:14:01;;;;;;;15.13;5.28;;;;;;;10.69;69.38;99945.88;5030446;28;20037;-85
2023/03/21 00:16:29;;;;;;;11.98;5.65;;;;;;;10.67;68.79;99950.75;5030210;28;20052;-85
2023/03/21 00:18:56;;;;;;;13.93;5.90;;;;;;;10.61;69.57;99953.47;5029700;28;20041;-94
2023/03/21 00:21:27;;;;;;;14.93;5.10;;;;;;;10.56;69.58;99947.97;5030597;28;20045;-95
2023/03/21 00:23:53;;;;;;;17.25;5.15;;;;;;;10.70;68.82;99944.81;5030346;28;20034;-87
2023/03/21 00:26:19;;;;;;;18.65;7.60;;;;;;;10.73;68.74;99933.38;5029982;28;20036;-87
2023/03/21 00:28:45;;;;;;;16.65;6.45;;;;;;;10.65;69.29;99942.03;5029573;28;20065;-92
2023/03/21 00:31:10;;;;;;;10.10;4.47;;;;;;;10.56;69.17;99945.22;5030026;28;20065;-93
2023/03/21 00:33:37;;;;;;;16.08;6.22;;;;;;;10.57;68.80;99933.25;5030209;28;20262;-93
2023/03/21 00:36:03;;;;;;;14.25;6.70;;;;;;;10.71;68.37;99932.81;5029175;28;20039;-93
2023/03/21 00:38:28;;;;;;;14.38;5.60;;;;;;;10.65;68.41;99925.66;5029322;28;20033;-87
2023/03/21 00:40:54;;;;;;;18.33;7.22;;;;;;;10.67;68.55;99931.69;5030139;28;20033;-88
2023/03/21 00:43:22;;;;;;;11.45;5.80;;;;;;;10.54;68.39;99922.03;5030130;28;20036;-87
2023/03/21 00:45:49;;;;;;;11.63;5.45;;;;;;;10.59;68.92;99922.09;5029644;28;20052;-87
2023/03/21 00:48:14;;;;;;;10.73;4.90;;;;;;;10.54;68.24;99914.69;5028927;28;20116;-87
2023/03/21 00:50:41;;;;;;;14.07;5.85;;;;;;;10.49;68.63;99920.09;5011976;28;20154;-88
2023/03/21 00:53:06;;;;;;;17.73;5.15;;;;;;;10.46;68.85;99915.13;5012580;28;20057;-95
2023/03/21 00:55:32;;;;;;;15.68;4.90;;;;;;;10.47;68.58;99914.88;5029806;28;20088;-95
2023/03/21 00:57:57;;;;;;;19.33;5.32;;;;;;;10.66;68.02;99921.88;5028197;28;20116;-87
2023/03/21 01:00:23;;;;;;;12.63;4.97;;;;;;;10.58;68.03;99914.97;5028987;28;20129;-87
2023/03/21 01:02:57;;;;;;;11.07;4.85;;;;;;;10.49;68.22;99911.94;5029308;28;20255;-85
2023/03/21 01:08:15;;;;;;;15.35;7.57;;;;;;;10.54;68.43;99900.22;5028926;28;20496;-85
2023/03/21 01:10:43;;;;;;;14.70;6.45;;;;;;;10.64;68.49;99902.22;5028573;28;20052;-85
2023/03/21 01:13:11;;;;;;;15.68;7.82;;;;;;;10.59;68.25;99903.84;5029657;28;20025;-96
2023/03/21 01:15:43;;;;;;;13.45;5.43;;;;;;;10.55;68.22;99899.16;5028951;28;20032;-95
2023/03/21 01:18:08;;;;;;;17.67;7.38;;;;;;;10.48;68.73;99894.72;5029119;28;20030;-87
2023/03/21 01:20:33;;;;;;;23.73;6.37;;;;;;;10.46;68.76;99894.16;5029452;28;20491;-85
2023/03/21 01:22:59;;;;;;;14.73;5.93;;;;;;;10.45;68.96;99892.53;5029243;28;20258;-86
2023/03/21 01:25:25;;;;;;;15.68;6.72;;;;;;;10.61;68.44;99893.47;5029587;28;20113;-87
2023/03/21 01:27:50;;;;;;;14.47;5.23;;;;;;;10.37;69.31;99893.78;5028897;28;20120;-86
2023/03/21 01:30:15;;;;;;;17.55;6.93;;;;;;;10.27;69.94;99888.28;5029502;28;20304;-87
2023/03/21 01:32:41;;;;;;;12.93;5.85;;;;;;;10.31;69.76;99888.59;5029045;28;20307;-96
2023/03/21 01:35:06;;;;;;;17.90;5.93;;;;;;;10.35;69.55;99890.50;5029537;28;20042;-96
2023/03/21 01:37:31;;;;;;;36.83;7.82;;;;;;;10.48;69.28;99891.97;5028785;28;20080;-85
2023/03/21 01:39:57;;;;;;;16.85;5.68;;;;;;;10.58;68.96;99885.81;5028784;28;20391;-84
2023/03/21 01:42:22;;;;;;;21.37;6.57;;;;;;;10.59;69.29;99894.81;5028886;28;20033;-84
2023/03/21 01:44:57;;;;;;;11.05;5.78;;;;;;;10.42;69.45;99887.56;5029032;28;20745;-85
2023/03/21 01:47:22;;;;;;;14.38;6.90;;;;;;;10.29;70.37;99883.41;5028132;28;20048;-88
2023/03/21 01:49:58;;;;;;;16.45;6.03;;;;;;;10.34;70.59;99882.59;5028941;28;20289;-88
2023/03/21 01:52:31;;;;;;;15.32;5.70;;;;;;;10.31;70.35;99883.97;5028575;28;20061;-87
2023/03/21 01:54:57;;;;;;;14.38;7.10;;;;;;;10.45;70.28;99880.78;5028789;28;20029;-88
2023/03/21 01:57:35;;;;;;;22.83;6.22;;;;;;;10.42;70.47;99884.03;5028164;28;20037;-88
2023/03/21 02:00:11;;;;;;;14.90;6.55;;;;;;;10.64;69.64;99878.47;5027865;28;20033;-87
2023/03/21 02:02:49;;;;;;;11.93;5.53;;;;;;;10.64;69.67;99880.41;5010788;28;20033;-96
2023/03/21 02:05:14;;;;;;;13.23;6.35;;;;;;;10.56;69.74;99878.97;5028499;28;20091;-89
2023/03/21 02:07:42;;;;;;;16.83;6.75;;;;;;;10.53;70.42;99871.34;5028104;28;20033;-88
2023/03/21 02:10:12;;;;;;;15.30;7.03;;;;;;;10.54;69.84;99873.78;5028203;28;20025;-89
2023/03/21 02:12:38;;;;;;;13.90;6.97;;;;;;;10.34;70.87;99872.53;5028107;28;20496;-88
2023/03/21 02:15:06;;;;;;;19.45;8.07;;;;;;;10.45;70.93;99867.16;5011310;28;20057;-88
2023/03/21 02:17:43;;;;;;;14.68;7.05;;;;;;;10.45;71.14;99861.72;5027754;28;20060;-87
2023/03/21 02:20:20;;;;;;;13.00;6.50;;;;;;;10.54;70.70;99860.16;5028198;28;20038;-88
2023/03/21 02:23:17;;;;;;;20.60;7.47;;;;;;;10.32;71.51;99860.25;5028185;28;20116;-87
2023/03/21 02:25:51;;;;;;;14.65;7.53;;;;;;;10.37;72.12;99852.91;5010298;28;20034;-95
2023/03/21 02:28:24;;;;;;;18.67;8.82;;;;;;;10.31;71.57;99862.16;5027259;28;20049;-95
2023/03/21 02:31:03;;;;;;;14.05;7.90;;;;;;;10.35;72.40;99852.34;5028467;28;20120;-96
2023/03/21 02:33:47;;;;;;;16.55;7.25;;;;;;;10.34;72.28;99853.44;5028036;28;20120;-95
2023/03/21 02:36:16;;;;;;;12.25;6.53;;;;;;;10.37;72.50;99849.41;5028073;28;20037;-96
2023/03/21 02:38:59;;;;;;;16.70;7.85;;;;;;;10.35;72.09;99857.00;5028275;28;20046;-96
2023/03/21 02:41:38;;;;;;;18.70;8.27;;;;;;;10.44;72.29;99854.59;5028231;28;20092;-87
2023/03/21 02:44:11;;;;;;;15.02;6.65;;;;;;;10.43;72.16;99847.53;5027480;28;20037;-86
2023/03/21 02:46:50;;;;;;;16.48;6.95;;;;;;;10.43;72.19;99852.97;5027784;28;20042;-87
2023/03/21 02:50:03;;;;;;;16.83;7.57;;;;;;;10.19;73.47;99850.63;5008967;28;20480;-87
2023/03/21 02:52:32;;;;;;;17.23;8.55;;;;;;;10.31;73.18;99848.53;5002419;28;20045;-96
2023/03/21 02:55:03;;;;;;;16.77;7.75;;;;;;;10.39;72.74;99847.22;5027872;28;20030;-95
2023/03/21 02:57:29;;;;;;;20.75;9.27;;;;;;;10.54;72.23;99848.44;5028307;28;20056;-84
2023/03/21 02:59:56;;;;;;;20.25;7.30;;;;;;;10.27;73.74;99845.50;5028200;28;20124;-85
2023/03/21 03:02:26;;;;;;;19.90;8.13;;;;;;;10.13;74.94;99845.09;5028094;28;20033;-89
2023/03/21 03:04:51;;;;;;;17.20;8.07;;;;;;;10.26;74.74;99853.94;5028090;28;20037;-88
2023/03/21 03:07:34;;;;;;;18.67;8.77;;;;;;;9.99;76.31;99843.91;5028428;28;20048;-87
2023/03/21 03:10:09;;;;;;;14.27;7.07;;;;;;;9.92;76.92;99850.41;5028315;28;20504;-87
2023/03/21 03:13:00;;;;;;;25.60;8.63;;;;;;;10.27;75.68;99844.69;5027279;28;20061;-87
2023/03/21 03:15:44;;;;;;;12.93;6.85;;;;;;;10.08;76.36;99846.97;5027454;28;20030;-88
2023/03/21 03:18:30;;;;;;;16.52;8.18;;;;;;;9.95;77.25;99840.88;5027454;28;20092;-88
2023/03/21 03:21:09;;;;;;;22.02;7.78;;;;;;;10.25;75.81;99835.97;5027490;28;20041;-85
2023/03/21 03:23:45;;;;;;;17.27;8.45;;;;;;;10.28;75.68;99840.88;5029887;28;20100;-85
2023/03/21 03:26:32;;;;;;;19.52;7.97;;;;;;;10.31;75.79;99834.91;5031257;28;20112;-94
2023/03/21 03:29:03;;;;;;;16.10;8.52;;;;;;;10.28;75.79;99829.97;5030800;28;20412;-94
2023/03/21 03:31:40;;;;;;;18.45;7.40;;;;;;;10.30;75.92;99819.63;5031770;28;20071;-95
2023/03/21 03:34:19;;;;;;;14.70;7.55;;;;;;;10.15;76.62;99812.97;5013069;28;20112;-95
2023/03/21 03:36:50;;;;;;;23.50;8.57;;;;;;;10.13;76.73;99822.47;5031430;28;20067;-89
2023/03/21 03:39:16;;;;;;;17.77;9.07;;;;;;;10.16;77.02;99817.38;5030542;28;20113;-95
2023/03/21 03:42:06;;;;;;;21.63;8.55;;;;;;;10.30;75.59;99811.47;5031984;28;20037;-88
2023/03/21 03:44:32;;;;;;;17.88;8.13;;;;;;;10.26;76.71;99807.59;5031340;28;20563;-93
2023/03/21 03:47:05;;;;;;;20.10;7.55;;;;;;;10.24;76.43;99807.06;5031414;28;20396;-85
2023/03/21 03:49:42;;;;;;;15.77;8.05;;;;;;;10.27;76.31;99806.53;5029692;28;20038;-85
2023/03/21 03:52:17;;;;;;;23.17;7.47;;;;;;;10.28;76.70;99808.16;5030139;28;20049;-88
2023/03/21 03:54:45;;;;;;;17.98;7.68;;;;;;;10.43;75.53;99798.47;5030674;28;20040;-88
2023/03/21 03:57:12;;;;;;;21.95;7.63;;;;;;;10.16;76.32;99790.13;5013186;28;20033;-88
2023/03/21 03:59:40;;;;;;;22.05;8.07;;;;;;;10.09;77.32;99800.41;5029502;28;20045;-87
2023/03/21 04:02:06;;;;;;;22.27;8.95;;;;;;;10.34;76.01;99798.13;5030248;28;20115;-87
2023/03/21 04:04:32;;;;;;;16.48;8.82;;;;;;;10.27;76.58;99795.66;5030483;28;20500;-86
2023/03/21 04:06:58;;;;;;;16.70;7.75;;;;;;;10.24;76.90;99804.31;5029867;28;20476;-93
2023/03/21 04:09:27;;;;;;;15.07;8.15;;;;;;;10.43;76.27;99793.84;5030131;28;20039;-93
2023/03/21 04:11:52;;;;;;;14.70;7.57;;;;;;;10.46;75.64;99797.91;5030773;28;20442;-88
2023/03/21 04:14:18;;;;;;;28.73;9.52;;;;;;;10.52;75.17;99788.72;5031018;28;20041;-88
2023/03/21 04:16:43;;;;;;;18.38;7.72;;;;;;;10.37;75.93;99781.25;5030630;28;20555;-88
2023/03/21 04:19:08;;;;;;;22.90;8.73;;;;;;;10.50;75.17;99793.63;5030172;28;20400;-88
2023/03/21 04:21:34;;;;;;;18.70;8.80;;;;;;;10.45;75.31;99785.38;5030028;28;20112;-88
2023/03/21 04:23:59;;;;;;;19.58;9.23;;;;;;;10.43;75.35;99782.09;5030773;28;20250;-89
2023/03/21 04:26:29;;;;;;;15.90;7.80;;;;;;;10.38;75.58;99789.16;5030485;28;20090;-88
2023/03/21 04:28:55;;;;;;;14.90;7.45;;;;;;;10.23;76.05;99783.63;5012214;28;20029;-84
2023/03/21 04:31:20;;;;;;;12.98;7.40;;;;;;;10.24;76.40;99782.53;5030673;28;20594;-85
2023/03/21 04:33:46;;;;;;;17.73;7.15;;;;;;;10.21;76.19;99783.06;5029516;28;20090;-86
2023/03/21 04:36:23;;;;;;;16.05;7.63;;;;;;;10.39;75.34;99777.16;5030218;28;20029;-87
2023/03/21 04:38:49;;;;;;;18.98;7.90;;;;;;;10.16;75.99;99781.94;5029527;28;20033;-88
2023/03/21 04:41:14;;;;;;;21.45;11.25;;;;;;;10.28;75.66;99781.75;5030263;28;20041;-88
2023/03/21 04:43:39;;;;;;;28.40;9.83;;;;;;;10.15;75.61;99777.56;5012308;28;20037;-96
2023/03/21 04:46:05;;;;;;;19.00;7.97;;;;;;;10.20;75.63;99767.78;5030281;28;20316;-96
2023/03/21 04:48:30;;;;;;;20.67;9.10;;;;;;;10.18;75.13;99772.69;5029580;28;20273;-94
2023/03/21 04:50:56;;;;;;;21.38;10.32;;;;;;;10.08;75.97;99768.81;5029714;28;20040;-94
2023/03/21 04:53:21;;;;;;;17.13;8.43;;;;;;;10.27;74.97;99758.28;5030321;28;20037;-96
2023/03/21 04:55:46;;;;;;;19.23;8.83;;;;;;;10.38;74.51;99758.34;5012172;28;20136;-96
2023/03/21 04:58:12;;;;;;;25.92;10.45;;;;;;;10.25;74.08;99757.72;5030083;28;20629;-96
2023/03/21 05:00:37;;;;;;;13.73;7.03;;;;;;;10.37;73.30;99757.53;5029400;28;20136;-96
2023/03/21 05:03:09;;;;;;;16.52;7.43;;;;;;;10.42;74.03;99753.19;5029870;28;20115;-95
2023/03/21 05:05:36;;;;;;;23.92;8.35;;;;;;;10.26;74.16;99750.38;5029248;28;20030;-96
2023/03/21 05:08:02;;;;;;;15.27;6.97;;;;;;;10.36;73.86;99753.19;5027888;28;20052;-87
2023/03/21 05:10:27;;;;;;;17.95;7.82;;;;;;;10.37;73.59;99752.09;5029347;28;20479;-87
2023/03/21 05:12:52;;;;;;;16.83;8.23;;;;;;;10.38;73.40;99752.91;5029230;28;20679;-86
2023/03/21 05:15:18;;;;;;;15.57;8.03;;;;;;;10.36;73.68;99753.19;5029272;28;20037;-87
2023/03/21 05:17:43;;;;;;;17.98;7.15;;;;;;;10.19;73.81;99749.81;5027985;28;20340;-88
2023/03/21 05:20:10;;;;;;;18.48;7.82;;;;;;;10.28;73.51;99757.22;5029344;28;20361;-88
2023/03/21 05:22:39;;;;;;;18.65;6.55;;;;;;;10.10;73.80;99763.09;5029454;28;20125;-88
2023/03/21 05:25:09;;;;;;;15.68;7.25;;;;;;;10.21;73.76;99756.63;5028367;28;20037;-89
2023/03/21 05:27:34;;;;;;;15.98;7.03;;;;;;;10.26;73.54;99758.56;5028192;28;20476;-89
2023/03/21 05:30:01;;;;;;;19.80;7.97;;;;;;;10.31;73.63;99755.88;5029107;28;20033;-89
2023/03/21 05:32:26;;;;;;;20.40;7.43;;;;;;;10.25;74.31;99755.00;5011847;28;20546;-95
2023/03/21 05:34:51;;;;;;;26.10;6.82;;;;;;;10.26;73.49;99755.84;5029041;28;20083;-95
2023/03/21 05:37:17;;;;;;;18.33;7.38;;;;;;;10.22;73.41;99757.44;5029395;28;20064;-88
2023/03/21 05:39:42;;;;;;;19.65;6.78;;;;;;;10.13;73.71;99757.09;5028736;28;20032;-88
2023/03/21 05:42:07;;;;;;;16.50;7.20;;;;;;;10.20;73.47;99762.34;5029276;28;20144;-94
2023/03/21 05:44:33;;;;;;;17.33;7.50;;;;;;;10.18;72.90;99756.31;5029000;28;20033;-94
2023/03/21 05:46:58;;;;;;;24.80;8.73;;;;;;;10.08;74.06;99759.81;5028967;28;20037;-88
2023/03/21 05:49:23;;;;;;;15.57;6.05;;;;;;;10.02;73.31;99753.50;5010994;28;20040;-87
2023/03/21 05:51:49;;;;;;;14.98;6.97;;;;;;;9.73;74.55;99749.19;5011287;28;20057;-96
2023/03/21 05:54:15;;;;;;;32.80;7.45;;;;;;;10.15;73.74;99749.50;5028375;28;20025;-94
2023/03/21 05:56:41;;;;;;;17.48;7.57;;;;;;;10.32;73.10;99749.34;5028768;28;20083;-95
2023/03/21 05:59:07;;;;;;;35.17;8.80;;;;;;;10.34;72.68;99747.16;5004099;28;20530;-95
2023/03/21 06:01:32;;;;;;;12.27;6.60;;;;;;;10.21;73.33;99743.00;5028764;28;20044;-95
2023/03/21 06:03:57;;;;;;;21.70;6.63;;;;;;;10.25;73.59;99748.75;5028670;28;20029;-96
2023/03/21 06:06:22;;;;;;;20.23;6.63;;;;;;;10.19;73.34;99747.09;5029163;28;20037;-96
2023/03/21 06:08:48;;;;;;;14.43;7.25;;;;;;;10.31;73.65;99750.44;5010323;28;20084;-84
2023/03/21 06:11:24;;;;;;;21.63;8.98;;;;;;;10.30;73.83;99751.50;5010766;28;20037;-84
2023/03/21 06:13:50;;;;;;;29.30;6.97;;;;;;;10.39;73.90;99744.47;5028528;28;20399;-87
2023/03/21 06:16:15;;;;;;;13.20;5.80;;;;;;;10.32;74.45;99749.34;5028496;28;20033;-87
2023/03/21 06:18:40;;;;;;;16.48;6.85;;;;;;;10.37;73.94;99746.63;5027867;28;20090;-96
2023/03/21 06:21:06;;;;;;;19.10;5.93;;;;;;;10.24;75.26;99750.66;5028562;28;20029;-93
2023/03/21 06:23:31;;;;;;;9.73;4.82;;;;;;;10.28;75.50;99746.31;5028981;28;20031;-93
2023/03/21 06:25:56;;;;;;;13.80;5.80;;;;;;;10.46;75.22;99748.84;5010400;28;20096;-94
2023/03/21 06:28:22;;;;;;;13.27;5.53;;;;;;;10.25;75.86;99749.56;5027561;28;20361;-86
2023/03/21 06:30:47;;;;;;;14.38;6.55;;;;;;;10.43;75.62;99744.78;5009760;28;20033;-86
2023/03/21 06:33:12;;;;;;;11.43;6.32;;;;;;;10.15;76.67;99739.41;5027404;28;20107;-86
2023/03/21 06:35:38;;;;;;;14.75;6.43;;;;;;;10.14;77.22;99747.88;5027892;28;20080;-86
2023/03/21 06:38:03;;;;;;;10.18;5.00;;;;;;;10.15;77.18;99753.03;5028154;28;20063;-85
2023/03/21 06:40:29;;;;;;;12.55;5.72;;;;;;;10.37;76.38;99749.34;5028504;28;20083;-86
2023/03/21 06:42:55;;;;;;;14.25;5.70;;;;;;;10.38;76.68;99753.75;5018137;28;20033;-93
2023/03/21 06:45:20;;;;;;;18.02;6.25;;;;;;;10.41;76.69;99751.56;5027309;28;20048;-92
2023/03/21 06:47:45;;;;;;;16.05;6.20;;;;;;;10.26;77.22;99753.94;5026926;28;20130;-89
2023/03/21 06:50:11;;;;;;;12.80;6.32;;;;;;;10.47;76.61;99750.50;5027090;28;20029;-89
2023/03/21 06:52:36;;;;;;;11.63;4.90;;;;;;;10.48;76.56;99747.53;5026961;28;20083;-93
2023/03/21 06:55:01;;;;;;;18.17;5.35;;;;;;;10.48;77.21;99752.97;5026504;28;20033;-93
2023/03/21 06:57:28;;;;;;;13.68;6.57;;;;;;;10.51;77.37;99752.47;5029107;28;20029;-87
2023/03/21 06:59:53;;;;;;;10.55;4.85;;;;;;;10.47;77.46;99750.50;5031343;28;20144;-87
2023/03/21 07:02:19;;;;;;;12.27;5.95;;;;;;;10.47;77.25;99756.78;5031860;28;20116;-87
2023/03/21 07:04:44;;;;;;;12.10;5.35;;;;;;;10.45;77.50;99758.97;5031136;28;20090;-87
2023/03/21 07:07:09;;;;;;;12.15;5.03;;;;;;;10.61;77.14;99745.44;5031687;28;20037;-86
2023/03/21 07:09:35;;;;;;;11.75;4.90;;;;;;;10.45;77.80;99745.34;5031117;28;20037;-87
2023/03/21 07:12:00;;;;;;;16.67;5.95;;;;;;;10.58;77.01;99746.78;5014230;28;20124;-86
2023/03/21 07:14:26;;;;;;;13.93;6.00;;;;;;;10.44;77.91;99753.75;5032254;28;20031;-86
2023/03/21 07:16:51;;;;;;;15.85;6.63;;;;;;;10.43;77.40;99752.97;5031918;28;20569;-86
2023/03/21 07:19:16;;;;;;;13.23;5.40;;;;;;;10.47;77.97;99755.97;5030554;28;20030;-86
2023/03/21 07:21:42;;;;;;;16.75;4.53;;;;;;;10.33;78.65;99755.63;5013736;28;20032;-86
2023/03/21 07:24:07;;;;;;;15.27;5.10;;;;;;;10.34;78.67;99752.63;5031216;28;20036;-86
2023/03/21 07:26:32;;;;;;;10.32;5.05;;;;;;;10.22;79.64;99760.16;5031756;28;20037;-86
2023/03/21 07:28:58;;;;;;;9.63;4.75;;;;;;;10.34;79.25;99757.25;5030371;28;20357;-88
2023/03/21 07:31:25;;;;;;;15.60;5.68;;;;;;;10.27;79.41;99752.84;5031436;28;20041;-88
2023/03/21 07:33:51;;;;;;;10.23;5.03;;;;;;;10.30;80.14;99751.50;5031214;28;20060;-88
2023/03/21 07:36:16;;;;;;;14.50;5.10;;;;;;;10.09;80.57;99754.09;5031255;28;20046;-88
2023/03/21 07:38:44;;;;;;;8.85;5.03;;;;;;;10.19;80.01;99756.06;5029777;28;20037;-88
2023/03/21 07:41:10;;;;;;;17.27;7.97;;;;;;;10.18;80.09;99764.50;5030986;28;20045;-88
2023/03/21 07:43:36;;;;;;;21.65;5.47;;;;;;;9.87;81.08;99768.63;5031277;28;20393;-86
2023/03/21 07:46:01;;;;;;;18.40;5.88;;;;;;;9.91;81.43;99767.03;5031178;28;20122;-86
2023/03/21 07:48:28;;;;;;;18.88;5.25;;;;;;;10.05;80.96;99766.59;5030609;28;20037;-87
2023/03/21 07:50:53;;;;;;;11.57;5.57;;;;;;;10.03;80.76;99760.59;5030531;28;20529;-87
2023/03/21 07:53:19;;;;;;;17.27;6.10;;;;;;;10.22;80.96;99754.72;5030343;28;20132;-87
2023/03/21 07:55:51;;;;;;;16.40;5.68;;;;;;;9.97;81.26;99757.00;5030839;28;20357;-86
2023/03/21 07:58:17;;;;;;;18.45;4.95;;;;;;;10.03;81.71;99763.31;5029418;28;20123;-88
2023/03/21 08:00:42;;;;;;;17.40;6.53;;;;;;;10.09;81.95;99775.88;5030678;28;20164;-88
2023/03/21 08:03:08;;;;;;;14.60;5.72;;;;;;;10.13;81.61;99773.44;5030824;28;20029;-86
2023/03/21 08:05:36;;;;;;;20.33;7.43;;;;;;;10.23;80.78;99768.06;5029439;28;20040;-86
2023/03/21 08:08:01;;;;;;;15.25;6.03;;;;;;;10.36;80.99;99765.97;5010781;28;20037;-95
2023/03/21 08:10:27;;;;;;;14.05;6.15;;;;;;;10.40;80.99;99767.09;5030773;28;20203;-94
2023/03/21 08:12:52;;;;;;;10.55;4.97;;;;;;;10.25;81.12;99779.53;5030970;28;20200;-94
2023/03/21 08:15:18;;;;;;;13.07;5.30;;;;;;;10.18;80.98;99772.69;5013155;28;20041;-95
2023/03/21 08:17:46;;;;;;;15.93;6.45;;;;;;;10.08;81.02;99771.53;5029883;28;20029;-94
2023/03/21 08:20:15;;;;;;;26.13;6.43;;;;;;;10.01;81.86;99760.03;5030107;28;20021;-94
2023/03/21 08:22:42;;;;;;;25.08;7.22;;;;;;;10.10;81.87;99746.75;5030028;28;20578;-85
2023/03/21 08:25:12;;;;;;;15.18;5.63;;;;;;;10.04;81.19;99754.06;5030120;28;20627;-86
2023/03/21 08:27:39;;;;;;;15.63;7.40;;;;;;;10.22;81.41;99741.94;5029501;28;20061;-86
2023/03/21 08:30:05;;;;;;;21.85;6.47;;;;;;;10.25;81.77;99746.03;5029322;28;20041;-86
2023/03/21 08:32:31;;;;;;;10.55;6.13;;;;;;;10.30;81.38;99746.06;5030255;28;20033;-94
2023/03/21 08:35:00;;;;;;;10.70;5.93;;;;;;;10.54;81.15;99745.66;5031080;28;20042;-93
2023/03/21 08:37:27;;;;;;;15.52;6.88;;;;;;;10.61;80.82;99745.44;5028697;28;20486;-86
2023/03/21 08:39:52;;;;;;;15.02;5.10;;;;;;;10.54;81.61;99745.66;5029965;28;20033;-87
2023/03/21 08:42:19;;;;;;;11.57;5.65;;;;;;;10.44;82.20;99748.31;5012722;28;20048;-95
2023/03/21 08:44:45;;;;;;;10.35;6.00;;;;;;;10.79;81.44;99752.31;5011958;28;20038;-94
2023/03/21 08:47:10;;;;;;;11.43;5.53;;;;;;;10.88;80.66;99749.91;5012122;28;20040;-94
2023/03/21 08:49:35;;;;;;;11.57;4.25;;;;;;;11.18;79.39;99753.00;5028943;28;20100;-93
2023/03/21 08:52:01;;;;;;;19.08;5.63;;;;;;;11.11;79.58;99746.97;5012052;28;20081;-86
2023/03/21 08:54:26;;;;;;;13.35;6.00;;;;;;;11.00;80.43;99746.97;5012009;28;20037;-86
2023/03/21 08:56:52;;;;;;;16.10;5.10;;;;;;;11.04;79.94;99753.53;5029774;28;20030;-94
2023/03/21 08:59:17;;;;;;;14.07;7.05;;;;;;;10.92;80.91;99755.66;5028096;28;20041;-94
2023/03/21 09:01:42;;;;;;;14.55;5.32;;;;;;;10.97;81.00;99759.22;5029528;28;20695;-94
2023/03/21 09:04:09;;;;;;;11.88;6.05;;;;;;;10.84;81.72;99762.44;5029468;28;20112;-93
2023/03/21 09:06:44;;;;;;;12.60;7.28;;;;;;;10.45;83.44;99763.59;5029469;28;20064;-94
2023/03/21 09:09:11;;;;;;;11.52;6.05;;;;;;;10.60;83.60;99762.88;5029325;28;20033;-93
2023/03/21 09:11:37;;;;;;;13.68;7.22;;;;;;;10.54;84.15;99763.91;5030049;28;20037;-93
2023/03/21 09:14:02;;;;;;;15.07;6.68;;;;;;;10.62;83.81;99758.78;5029703;28;20125;-87
2023/03/21 09:16:27;;;;;;;12.35;6.15;;;;;;;10.36;84.78;99760.53;5029783;28;20064;-88
2023/03/21 09:18:55;;;;;;;12.60;7.35;;;;;;;10.60;84.61;99763.69;5028957;28;20033;-87
2023/03/21 09:21:21;;;;;;;16.42;7.57;;;;;;;10.78;83.64;99761.59;5028435;28;20041;-88
2023/03/21 09:23:51;;;;;;;15.48;7.43;;;;;;;10.69;84.49;99763.19;5012028;28;20033;-87
2023/03/21 09:26:18;;;;;;;12.88;6.72;;;;;;;10.89;83.73;99762.47;5028328;28;20044;-87
2023/03/21 09:28:47;;;;;;;13.48;6.68;;;;;;;10.89;83.56;99761.63;5029087;28;20037;-95
2023/03/21 09:31:15;;;;;;;12.73;6.20;;;;;;;10.90;83.66;99755.91;5029604;28;20034;-96
2023/03/21 09:33:42;;;;;;;13.80;5.88;;;;;;;10.71;84.09;99755.56;5028321;28;20038;-87
2023/03/21 09:36:12;;;;;;;12.02;4.68;;;;;;;10.84;84.08;99755.06;5029239;28;20076;-87
2023/03/21 09:38:39;;;;;;;13.95;4.97;;;;;;;10.95;83.45;99760.56;5010777;28;20044;-88
2023/03/21 09:41:23;;;;;;;9.50;5.07;;;;;;;10.90;83.94;99752.38;5029487;28;20028;-87
2023/03/21 09:43:54;;;;;;;9.00;4.70;;;;;;;10.85;84.10;99753.16;5029852;28;20492;-96
2023/03/21 09:46:42;;;;;;;8.85;5.18;;;;;;;10.92;84.12;99750.19;5030554;28;20116;-96
2023/03/21 09:49:19;;;;;;;10.93;4.43;;;;;;;10.90;84.49;99742.25;5027862;28;20033;-96
2023/03/21 09:51:47;;;;;;;8.88;4.28;;;;;;;11.01;84.06;99747.75;5028160;28;20074;-89
2023/03/21 09:54:21;;;;;;;9.95;3.97;;;;;;;10.82;84.69;99746.31;5028373;28;20037;-89
2023/03/21 09:56:51;;;;;;;11.25;4.32;;;;;;;10.86;84.65;99749.38;5029126;28;20064;-95
2023/03/21 09:59:42;;;;;;;10.77;5.32;;;;;;;10.72;85.17;99749.00;5010782;28;20034;-94
2023/03/21 10:02:34;;;;;;;14.35;4.63;;;;;;;11.00;85.03;99744.22;5011844;28;20495;-87
2023/03/21 10:05:01;;;;;;;10.60;4.47;;;;;;;10.89;84.41;99748.00;5028729;28;20345;-87
2023/03/21 10:07:30;;;;;;;11.13;5.47;;;;;;;10.91;84.71;99749.38;5003340;28;20037;-92
2023/03/21 10:09:59;;;;;;;13.63;5.32;;;;;;;11.05;84.44;99754.31;5002880;28;20192;-93
2023/03/21 10:12:29;;;;;;;15.77;4.82;;;;;;;10.80;84.54;99753.94;5028087;28;20065;-90
2023/03/21 10:14:57;;;;;;;7.10;3.72;;;;;;;11.06;84.20;99740.44;5028058;28;20033;-90
2023/03/21 10:17:32;;;;;;;8.70;3.92;;;;;;;10.96;84.06;99738.47;5008838;28;20044;-87
2023/03/21 10:20:21;;;;;;;12.85;3.83;;;;;;;11.22;83.35;99732.28;5028314;28;20476;-86
2023/03/21 10:22:49;;;;;;;8.32;4.47;;;;;;;11.22;83.20;99732.28;5027866;28;20038;-87
2023/03/21 10:25:19;;;;;;;10.85;3.47;;;;;;;11.33;82.79;99735.81;5010024;28;20034;-88
2023/03/21 10:27:45;;;;;;;8.73;3.25;;;;;;;11.26;81.68;99733.38;5025291;28;20102;-87
2023/03/21 10:30:23;;;;;;;6.53;2.85;;;;;;;10.98;81.66;99733.56;5028487;28;20449;-87
2023/03/21 10:32:48;;;;;;;9.30;3.85;;;;;;;10.95;82.12;99727.81;5031332;28;20318;-87
2023/03/21 10:35:14;;;;;;;7.22;2.40;;;;;;;11.06;81.87;99724.06;5032441;28;20460;-87
2023/03/21 10:37:39;;;;;;;9.35;3.92;;;;;;;10.96;81.64;99724.03;5031178;28;20033;-88
2023/03/21 10:40:08;;;;;;;9.18;3.03;;;;;;;10.87;82.17;99721.00;5032433;28;20087;-87
2023/03/21 10:42:35;;;;;;;7.13;3.10;;;;;;;10.97;81.61;99725.66;5032712;28;20376;-96
2023/03/21 10:45:01;;;;;;;9.32;3.33;;;;;;;11.03;81.32;99724.59;5014840;28;20041;-96
2023/03/21 10:47:30;;;;;;;11.32;3.97;;;;;;;11.11;80.72;99709.59;5032164;28;20037;-95
2023/03/21 10:50:04;;;;;;;10.13;3.30;;;;;;;11.28;80.61;99723.00;5031433;28;20030;-94
2023/03/21 10:52:31;;;;;;;13.38;3.22;;;;;;;11.35;80.73;99721.94;5032460;28;20172;-95
2023/03/21 10:55:07;;;;;;;9.63;4.07;;;;;;;11.19;79.82;99700.03;5032695;28;20117;-94
2023/03/21 10:57:36;;;;;;;12.35;3.00;;;;;;;11.30;80.00;99711.81;5032463;28;20107;-89
2023/03/21 11:00:13;;;;;;;9.07;2.85;;;;;;;11.26;80.17;99697.06;5032395;28;20025;-89
2023/03/21 11:02:39;;;;;;;7.78;3.88;;;;;;;11.39;80.00;99698.47;5032113;28;20108;-88
2023/03/21 11:05:13;;;;;;;6.43;2.72;;;;;;;11.28;80.54;99690.25;5032492;28;20056;-89
2023/03/21 11:07:39;;;;;;;6.03;3.17;;;;;;;11.44;80.22;99685.63;5031222;28;20653;-88
2023/03/21 11:10:14;;;;;;;6.82;3.50;;;;;;;11.59;79.40;99685.91;5031817;28;20473;-88
2023/03/21 11:12:45;;;;;;;7.32;3.10;;;;;;;11.61;79.36;99679.06;5030297;28;20029;-87
2023/03/21 11:15:32;;;;;;;7.97;2.63;;;;;;;11.41;80.06;99677.97;5031573;28;20036;-87
2023/03/21 11:17:59;;;;;;;8.50;2.78;;;;;;;11.60;79.54;99677.44;5031244;28;20061;-86
2023/03/21 11:20:28;;;;;;;9.38;2.83;;;;;;;11.66;79.09;99675.50;5032065;28;20029;-86
2023/03/21 11:22:54;;;;;;;7.60;3.72;;;;;;;11.59;79.59;99661.31;5032145;28;20098;-95
2023/03/21 11:25:36;;;;;;;14.80;3.13;;;;;;;11.84;78.79;99654.19;5032106;28;20057;-95
2023/03/21 11:28:07;;;;;;;5.90;2.08;;;;;;;12.02;78.03;99650.06;5031539;28;20026;-88
2023/03/21 11:30:33;;;;;;;6.82;2.90;;;;;;;11.89;78.28;99646.81;5030655;28;20041;-88
2023/03/21 11:33:05;;;;;;;9.80;3.00;;;;;;;11.95;78.69;99639.41;5030766;28;20037;-93
2023/03/21 11:35:36;;;;;;;7.85;3.88;;;;;;;12.28;77.40;99628.13;5031531;28;20032;-93
2023/03/21 11:38:03;;;;;;;5.80;2.80;;;;;;;12.51;75.49;99630.50;5030441;28;20034;-94